sensor_id;sensor_type;location;lat;lon;timestamp;temperature;humidity
22771;DHT22;11552;50.786;4.332;2022-08-02T00:01:37;20.80;99.90
22771;DHT22;11552;50.786;4.332;2022-08-02T00:04:03;20.80;99.90
22771;DHT22;11552;50.786;4.332;2022-08-02T00:06:29;20.70;99.90
22771;DHT22;11552;50.786;4.332;2022-08-02T00:08:55;20.80;99.90
22771;DHT22;11552;50.786;4.332;2022-08-02T00:11:20;20.70;99.90
22771;DHT22;11552;50.786;4.332;2022-08-02T00:13:46;20.60;99.90
22771;DHT22;11552;50.786;4.332;2022-08-02T00:16:12;20.60;99.90
22771;DHT22;11552;50.786;4.332;2022-08-02T00:18:37;20.50;99.90
22771;DHT22;11552;50.786;4.332;2022-08-02T00:21:03;20.50;99.90
22771;DHT22;11552;50.786;4.332;2022-08-02T00:23:29;20.50;99.90
22771;DHT22;11552;50.786;4.332;2022-08-02T00:25:54;20.50;99.90
22771;DHT22;11552;50.786;4.332;2022-08-02T00:28:20;20.50;99.90
22771;DHT22;11552;50.786;4.332;2022-08-02T00:30:45;20.60;99.90
22771;DHT22;11552;50.786;4.332;2022-08-02T00:33:11;20.50;99.90
22771;DHT22;11552;50.786;4.332;2022-08-02T00:35:37;20.60;99.90
22771;DHT22;11552;50.786;4.332;2022-08-02T00:38:03;20.50;99.90
22771;DHT22;11552;50.786;4.332;2022-08-02T00:40:29;20.50;99.90
22771;DHT22;11552;50.786;4.332;2022-08-02T00:43:09;20.40;99.90
22771;DHT22;11552;50.786;4.332;2022-08-02T00:45:37;20.50;99.90
22771;DHT22;11552;50.786;4.332;2022-08-02T00:48:03;20.40;99.90
22771;DHT22;11552;50.786;4.332;2022-08-02T00:50:30;20.30;99.90
22771;DHT22;11552;50.786;4.332;2022-08-02T00:52:56;20.40;99.90
22771;DHT22;11552;50.786;4.332;2022-08-02T00:55:21;20.40;99.90
22771;DHT22;11552;50.786;4.332;2022-08-02T00:57:47;20.30;99.90
22771;DHT22;11552;50.786;4.332;2022-08-02T01:00:14;20.30;99.90
22771;DHT22;11552;50.786;4.332;2022-08-02T01:02:40;20.30;99.90
22771;DHT22;11552;50.786;4.332;2022-08-02T01:05:06;20.30;99.90
22771;DHT22;11552;50.786;4.332;2022-08-02T01:07:32;20.50;99.90
22771;DHT22;11552;50.786;4.332;2022-08-02T01:09:58;20.50;99.90
22771;DHT22;11552;50.786;4.332;2022-08-02T01:12:25;20.60;99.90
22771;DHT22;11552;50.786;4.332;2022-08-02T01:14:53;20.60;99.90
22771;DHT22;11552;50.786;4.332;2022-08-02T01:17:50;20.60;99.90
22771;DHT22;11552;50.786;4.332;2022-08-02T01:23:33;20.70;99.90
22771;DHT22;11552;50.786;4.332;2022-08-02T01:28:49;20.80;99.90
22771;DHT22;11552;50.786;4.332;2022-08-02T01:36:48;20.70;99.90
22771;DHT22;11552;50.786;4.332;2022-08-02T01:39:19;20.80;99.90
22771;DHT22;11552;50.786;4.332;2022-08-02T01:41:45;20.80;99.90
22771;DHT22;11552;50.786;4.332;2022-08-02T01:44:14;20.80;99.90
22771;DHT22;11552;50.786;4.332;2022-08-02T01:46:41;20.90;99.90
22771;DHT22;11552;50.786;4.332;2022-08-02T01:49:19;21.00;99.90
22771;DHT22;11552;50.786;4.332;2022-08-02T01:51:49;21.00;99.90
22771;DHT22;11552;50.786;4.332;2022-08-02T01:54:34;20.80;99.90
22771;DHT22;11552;50.786;4.332;2022-08-02T01:57:03;20.70;99.90
22771;DHT22;11552;50.786;4.332;2022-08-02T01:59:30;20.50;99.90
22771;DHT22;11552;50.786;4.332;2022-08-02T02:01:58;20.50;99.90
22771;DHT22;11552;50.786;4.332;2022-08-02T02:04:26;20.50;99.90
22771;DHT22;11552;50.786;4.332;2022-08-02T02:06:54;20.60;99.90
22771;DHT22;11552;50.786;4.332;2022-08-02T02:09:21;20.70;99.90
22771;DHT22;11552;50.786;4.332;2022-08-02T02:11:49;20.70;99.90
22771;DHT22;11552;50.786;4.332;2022-08-02T02:14:16;20.60;99.90
22771;DHT22;11552;50.786;4.332;2022-08-02T02:16:44;20.70;99.90
22771;DHT22;11552;50.786;4.332;2022-08-02T02:19:11;20.80;99.90
22771;DHT22;11552;50.786;4.332;2022-08-02T02:21:38;20.80;99.90
22771;DHT22;11552;50.786;4.332;2022-08-02T02:24:04;20.90;99.90
22771;DHT22;11552;50.786;4.332;2022-08-02T02:26:30;20.80;99.90
22771;DHT22;11552;50.786;4.332;2022-08-02T02:29:00;20.80;99.90
22771;DHT22;11552;50.786;4.332;2022-08-02T02:31:31;20.80;99.90
22771;DHT22;11552;50.786;4.332;2022-08-02T02:34:17;20.80;99.90
22771;DHT22;11552;50.786;4.332;2022-08-02T02:36:49;20.80;99.90
22771;DHT22;11552;50.786;4.332;2022-08-02T02:39:19;20.60;99.90
22771;DHT22;11552;50.786;4.332;2022-08-02T02:41:46;20.40;99.90
22771;DHT22;11552;50.786;4.332;2022-08-02T02:44:17;20.40;99.90
22771;DHT22;11552;50.786;4.332;2022-08-02T02:46:43;20.30;99.90
22771;DHT22;11552;50.786;4.332;2022-08-02T02:49:10;20.40;99.90
22771;DHT22;11552;50.786;4.332;2022-08-02T02:51:38;20.40;99.90
22771;DHT22;11552;50.786;4.332;2022-08-02T02:54:04;20.50;99.90
22771;DHT22;11552;50.786;4.332;2022-08-02T02:56:31;20.50;99.90
22771;DHT22;11552;50.786;4.332;2022-08-02T02:58:57;20.40;99.90
22771;DHT22;11552;50.786;4.332;2022-08-02T03:01:25;20.40;99.90
22771;DHT22;11552;50.786;4.332;2022-08-02T03:04:00;20.60;99.90
22771;DHT22;11552;50.786;4.332;2022-08-02T03:06:27;20.70;99.90
22771;DHT22;11552;50.786;4.332;2022-08-02T03:08:53;20.60;99.90
22771;DHT22;11552;50.786;4.332;2022-08-02T03:11:18;20.50;99.90
22771;DHT22;11552;50.786;4.332;2022-08-02T03:13:44;20.40;99.90
22771;DHT22;11552;50.786;4.332;2022-08-02T03:16:11;20.40;99.90
22771;DHT22;11552;50.786;4.332;2022-08-02T03:18:39;20.40;99.90
22771;DHT22;11552;50.786;4.332;2022-08-02T03:21:10;20.40;99.90
22771;DHT22;11552;50.786;4.332;2022-08-02T03:23:40;20.20;99.90
22771;DHT22;11552;50.786;4.332;2022-08-02T03:26:07;20.20;99.90
22771;DHT22;11552;50.786;4.332;2022-08-02T03:28:33;20.20;99.90
22771;DHT22;11552;50.786;4.332;2022-08-02T03:30:59;20.20;99.90
22771;DHT22;11552;50.786;4.332;2022-08-02T03:33:25;20.20;99.90
22771;DHT22;11552;50.786;4.332;2022-08-02T03:35:54;20.30;99.90
22771;DHT22;11552;50.786;4.332;2022-08-02T03:38:21;20.20;99.90
22771;DHT22;11552;50.786;4.332;2022-08-02T03:40:48;20.20;99.90
22771;DHT22;11552;50.786;4.332;2022-08-02T03:43:15;20.10;99.90
22771;DHT22;11552;50.786;4.332;2022-08-02T03:45:43;20.10;99.90
22771;DHT22;11552;50.786;4.332;2022-08-02T03:48:12;20.10;99.90
22771;DHT22;11552;50.786;4.332;2022-08-02T03:50:39;20.00;99.90
22771;DHT22;11552;50.786;4.332;2022-08-02T03:53:06;20.00;99.90
22771;DHT22;11552;50.786;4.332;2022-08-02T03:55:33;20.00;99.90
22771;DHT22;11552;50.786;4.332;2022-08-02T03:57:59;20.10;99.90
22771;DHT22;11552;50.786;4.332;2022-08-02T04:00:25;20.20;99.90
22771;DHT22;11552;50.786;4.332;2022-08-02T04:02:51;20.10;99.90
22771;DHT22;11552;50.786;4.332;2022-08-02T04:05:17;20.10;99.90
22771;DHT22;11552;50.786;4.332;2022-08-02T04:07:44;20.10;99.90
22771;DHT22;11552;50.786;4.332;2022-08-02T04:10:10;20.10;99.90
22771;DHT22;11552;50.786;4.332;2022-08-02T04:12:37;20.10;99.90
22771;DHT22;11552;50.786;4.332;2022-08-02T04:15:06;20.00;99.90
22771;DHT22;11552;50.786;4.332;2022-08-02T04:17:37;20.00;99.90
22771;DHT22;11552;50.786;4.332;2022-08-02T04:22:39;19.90;99.90
22771;DHT22;11552;50.786;4.332;2022-08-02T04:25:07;19.90;99.90
22771;DHT22;11552;50.786;4.332;2022-08-02T04:27:34;20.00;99.90
22771;DHT22;11552;50.786;4.332;2022-08-02T04:30:03;20.10;99.90
22771;DHT22;11552;50.786;4.332;2022-08-02T04:32:29;20.10;99.90
22771;DHT22;11552;50.786;4.332;2022-08-02T04:34:56;20.10;99.90
22771;DHT22;11552;50.786;4.332;2022-08-02T04:37:22;20.00;99.90
22771;DHT22;11552;50.786;4.332;2022-08-02T04:39:48;20.00;99.90
22771;DHT22;11552;50.786;4.332;2022-08-02T04:42:24;20.00;99.90
22771;DHT22;11552;50.786;4.332;2022-08-02T04:44:52;19.90;99.90
22771;DHT22;11552;50.786;4.332;2022-08-02T04:47:18;20.00;99.90
22771;DHT22;11552;50.786;4.332;2022-08-02T04:49:45;19.90;99.90
22771;DHT22;11552;50.786;4.332;2022-08-02T04:52:11;20.00;99.90
22771;DHT22;11552;50.786;4.332;2022-08-02T04:54:37;20.20;99.90
22771;DHT22;11552;50.786;4.332;2022-08-02T04:57:02;20.10;99.90
22771;DHT22;11552;50.786;4.332;2022-08-02T04:59:48;19.90;99.90
22771;DHT22;11552;50.786;4.332;2022-08-02T05:02:14;19.80;99.90
22771;DHT22;11552;50.786;4.332;2022-08-02T05:04:39;19.80;99.90
22771;DHT22;11552;50.786;4.332;2022-08-02T05:07:05;19.90;99.90
22771;DHT22;11552;50.786;4.332;2022-08-02T05:09:30;19.90;99.90
22771;DHT22;11552;50.786;4.332;2022-08-02T05:11:56;19.80;99.90
22771;DHT22;11552;50.786;4.332;2022-08-02T05:14:22;19.70;99.90
22771;DHT22;11552;50.786;4.332;2022-08-02T05:16:47;19.60;99.90
22771;DHT22;11552;50.786;4.332;2022-08-02T05:19:13;19.60;99.90
22771;DHT22;11552;50.786;4.332;2022-08-02T05:21:38;19.70;99.90
22771;DHT22;11552;50.786;4.332;2022-08-02T05:24:05;19.70;99.90
22771;DHT22;11552;50.786;4.332;2022-08-02T05:26:30;19.70;99.90
22771;DHT22;11552;50.786;4.332;2022-08-02T05:28:56;19.70;99.90
22771;DHT22;11552;50.786;4.332;2022-08-02T05:31:21;19.60;99.90
22771;DHT22;11552;50.786;4.332;2022-08-02T05:33:47;19.50;99.90
22771;DHT22;11552;50.786;4.332;2022-08-02T05:36:13;19.50;99.90
22771;DHT22;11552;50.786;4.332;2022-08-02T05:38:38;19.40;99.90
22771;DHT22;11552;50.786;4.332;2022-08-02T05:41:05;19.30;99.90
22771;DHT22;11552;50.786;4.332;2022-08-02T05:43:31;19.30;99.90
22771;DHT22;11552;50.786;4.332;2022-08-02T05:45:57;19.40;99.90
22771;DHT22;11552;50.786;4.332;2022-08-02T05:48:22;19.30;99.90
22771;DHT22;11552;50.786;4.332;2022-08-02T05:50:57;19.40;99.90
22771;DHT22;11552;50.786;4.332;2022-08-02T06:01:13;19.30;99.90
22771;DHT22;11552;50.786;4.332;2022-08-02T06:03:50;19.40;99.90
22771;DHT22;11552;50.786;4.332;2022-08-02T06:06:19;19.50;99.90
22771;DHT22;11552;50.786;4.332;2022-08-02T06:08:50;19.60;99.90
22771;DHT22;11552;50.786;4.332;2022-08-02T06:11:23;19.70;99.90
22771;DHT22;11552;50.786;4.332;2022-08-02T06:13:50;19.70;99.90
22771;DHT22;11552;50.786;4.332;2022-08-02T06:16:16;19.60;99.90
22771;DHT22;11552;50.786;4.332;2022-08-02T06:18:42;19.60;99.90
22771;DHT22;11552;50.786;4.332;2022-08-02T06:21:08;19.60;99.90
22771;DHT22;11552;50.786;4.332;2022-08-02T06:23:40;19.70;99.90
22771;DHT22;11552;50.786;4.332;2022-08-02T06:26:10;19.70;99.90
22771;DHT22;11552;50.786;4.332;2022-08-02T06:28:38;19.90;99.90
22771;DHT22;11552;50.786;4.332;2022-08-02T06:31:07;20.20;99.90
22771;DHT22;11552;50.786;4.332;2022-08-02T06:33:33;20.20;99.90
22771;DHT22;11552;50.786;4.332;2022-08-02T06:36:30;20.30;99.90
22771;DHT22;11552;50.786;4.332;2022-08-02T06:41:41;20.50;99.90
22771;DHT22;11552;50.786;4.332;2022-08-02T06:44:07;20.50;99.90
22771;DHT22;11552;50.786;4.332;2022-08-02T06:46:33;20.60;99.90
22771;DHT22;11552;50.786;4.332;2022-08-02T06:49:00;20.70;99.90
22771;DHT22;11552;50.786;4.332;2022-08-02T06:51:26;20.80;99.90
22771;DHT22;11552;50.786;4.332;2022-08-02T06:53:52;20.70;99.90
22771;DHT22;11552;50.786;4.332;2022-08-02T06:56:17;20.90;99.90
22771;DHT22;11552;50.786;4.332;2022-08-02T06:58:44;21.10;99.90
22771;DHT22;11552;50.786;4.332;2022-08-02T07:01:10;21.20;99.90
22771;DHT22;11552;50.786;4.332;2022-08-02T07:03:38;21.50;99.90
22771;DHT22;11552;50.786;4.332;2022-08-02T07:06:05;21.60;99.90
22771;DHT22;11552;50.786;4.332;2022-08-02T07:08:33;21.40;99.90
22771;DHT22;11552;50.786;4.332;2022-08-02T07:11:01;21.30;99.90
22771;DHT22;11552;50.786;4.332;2022-08-02T07:13:27;21.40;99.90
22771;DHT22;11552;50.786;4.332;2022-08-02T07:15:53;21.50;99.90
22771;DHT22;11552;50.786;4.332;2022-08-02T07:18:19;21.60;99.90
22771;DHT22;11552;50.786;4.332;2022-08-02T07:20:45;21.60;99.90
22771;DHT22;11552;50.786;4.332;2022-08-02T07:23:11;21.80;99.90
22771;DHT22;11552;50.786;4.332;2022-08-02T07:25:36;22.00;99.90
22771;DHT22;11552;50.786;4.332;2022-08-02T07:28:03;22.10;99.90
22771;DHT22;11552;50.786;4.332;2022-08-02T07:30:29;22.10;99.90
22771;DHT22;11552;50.786;4.332;2022-08-02T07:33:00;21.90;99.90
22771;DHT22;11552;50.786;4.332;2022-08-02T07:35:26;21.90;99.90
22771;DHT22;11552;50.786;4.332;2022-08-02T07:37:52;22.00;99.90
22771;DHT22;11552;50.786;4.332;2022-08-02T07:40:18;22.10;99.90
22771;DHT22;11552;50.786;4.332;2022-08-02T07:42:45;22.20;99.90
22771;DHT22;11552;50.786;4.332;2022-08-02T07:45:12;22.20;99.90
22771;DHT22;11552;50.786;4.332;2022-08-02T07:47:42;22.20;99.90
22771;DHT22;11552;50.786;4.332;2022-08-02T07:50:08;22.40;99.90
22771;DHT22;11552;50.786;4.332;2022-08-02T07:52:35;23.10;99.90
22771;DHT22;11552;50.786;4.332;2022-08-02T07:55:00;24.80;99.90
22771;DHT22;11552;50.786;4.332;2022-08-02T07:57:26;26.80;99.90
22771;DHT22;11552;50.786;4.332;2022-08-02T07:59:52;28.50;99.90
22771;DHT22;11552;50.786;4.332;2022-08-02T08:02:17;30.10;97.70
22771;DHT22;11552;50.786;4.332;2022-08-02T08:04:43;31.30;92.30
22771;DHT22;11552;50.786;4.332;2022-08-02T08:07:09;32.20;89.30
22771;DHT22;11552;50.786;4.332;2022-08-02T08:09:39;32.10;85.80
22771;DHT22;11552;50.786;4.332;2022-08-02T08:12:07;33.00;82.60
22771;DHT22;11552;50.786;4.332;2022-08-02T08:14:33;33.80;78.60
22771;DHT22;11552;50.786;4.332;2022-08-02T08:16:59;34.90;73.60
22771;DHT22;11552;50.786;4.332;2022-08-02T08:19:25;34.90;71.20
22771;DHT22;11552;50.786;4.332;2022-08-02T08:21:50;34.50;70.10
22771;DHT22;11552;50.786;4.332;2022-08-02T08:24:16;33.70;71.30
22771;DHT22;11552;50.786;4.332;2022-08-02T08:26:42;33.30;73.50
22771;DHT22;11552;50.786;4.332;2022-08-02T08:29:08;33.10;73.40
22771;DHT22;11552;50.786;4.332;2022-08-02T08:31:33;34.00;71.80
22771;DHT22;11552;50.786;4.332;2022-08-02T08:34:00;35.00;68.40
22771;DHT22;11552;50.786;4.332;2022-08-02T08:36:26;35.10;66.90
22771;DHT22;11552;50.786;4.332;2022-08-02T08:38:51;35.40;65.60
22771;DHT22;11552;50.786;4.332;2022-08-02T08:41:18;36.00;64.90
22771;DHT22;11552;50.786;4.332;2022-08-02T08:43:45;36.30;63.60
22771;DHT22;11552;50.786;4.332;2022-08-02T08:46:20;36.80;62.00
22771;DHT22;11552;50.786;4.332;2022-08-02T08:48:49;37.50;59.70
22771;DHT22;11552;50.786;4.332;2022-08-02T08:51:20;37.70;58.10
22771;DHT22;11552;50.786;4.332;2022-08-02T08:53:48;37.10;58.20
22771;DHT22;11552;50.786;4.332;2022-08-02T08:56:15;36.70;58.10
22771;DHT22;11552;50.786;4.332;2022-08-02T08:58:43;36.40;58.60
22771;DHT22;11552;50.786;4.332;2022-08-02T09:01:09;36.40;58.50
22771;DHT22;11552;50.786;4.332;2022-08-02T09:03:36;35.40;60.00
22771;DHT22;11552;50.786;4.332;2022-08-02T09:06:02;36.40;58.90
22771;DHT22;11552;50.786;4.332;2022-08-02T09:08:28;37.50;56.70
22771;DHT22;11552;50.786;4.332;2022-08-02T09:10:54;38.40;55.20
22771;DHT22;11552;50.786;4.332;2022-08-02T09:13:20;39.10;53.40
22771;DHT22;11552;50.786;4.332;2022-08-02T09:18:48;37.80;55.00
22771;DHT22;11552;50.786;4.332;2022-08-02T09:21:15;37.10;55.00
22771;DHT22;11552;50.786;4.332;2022-08-02T09:23:44;36.50;55.20
22771;DHT22;11552;50.786;4.332;2022-08-02T09:26:13;36.70;55.40
22771;DHT22;11552;50.786;4.332;2022-08-02T09:28:41;38.00;53.90
22771;DHT22;11552;50.786;4.332;2022-08-02T09:31:10;38.50;52.80
22771;DHT22;11552;50.786;4.332;2022-08-02T09:33:38;38.40;53.30
22771;DHT22;11552;50.786;4.332;2022-08-02T09:36:06;38.80;52.00
22771;DHT22;11552;50.786;4.332;2022-08-02T09:38:33;37.70;53.50
22771;DHT22;11552;50.786;4.332;2022-08-02T09:41:00;35.90;55.50
22771;DHT22;11552;50.786;4.332;2022-08-02T09:43:42;34.40;58.50
22771;DHT22;11552;50.786;4.332;2022-08-02T09:46:19;33.60;61.20
22771;DHT22;11552;50.786;4.332;2022-08-02T09:48:51;34.70;59.50
22771;DHT22;11552;50.786;4.332;2022-08-02T09:51:27;36.40;57.40
22771;DHT22;11552;50.786;4.332;2022-08-02T09:53:56;36.10;55.90
22771;DHT22;11552;50.786;4.332;2022-08-02T09:56:24;37.40;55.30
22771;DHT22;11552;50.786;4.332;2022-08-02T09:58:51;37.40;54.70
22771;DHT22;11552;50.786;4.332;2022-08-02T10:01:20;36.90;54.90
22771;DHT22;11552;50.786;4.332;2022-08-02T10:03:59;36.10;55.70
22771;DHT22;11552;50.786;4.332;2022-08-02T10:06:26;36.30;55.50
22771;DHT22;11552;50.786;4.332;2022-08-02T10:08:52;36.40;54.90
22771;DHT22;11552;50.786;4.332;2022-08-02T10:11:23;37.40;53.30
22771;DHT22;11552;50.786;4.332;2022-08-02T10:13:50;37.90;51.60
22771;DHT22;11552;50.786;4.332;2022-08-02T10:16:17;38.30;50.70
22771;DHT22;11552;50.786;4.332;2022-08-02T10:18:44;38.20;50.90
22771;DHT22;11552;50.786;4.332;2022-08-02T10:21:15;37.00;52.40
22771;DHT22;11552;50.786;4.332;2022-08-02T10:23:45;36.60;53.20
22771;DHT22;11552;50.786;4.332;2022-08-02T10:26:17;36.70;53.20
22771;DHT22;11552;50.786;4.332;2022-08-02T10:28:46;37.20;52.00
22771;DHT22;11552;50.786;4.332;2022-08-02T10:31:18;36.20;53.60
22771;DHT22;11552;50.786;4.332;2022-08-02T10:33:45;35.60;54.00
22771;DHT22;11552;50.786;4.332;2022-08-02T10:36:13;34.70;54.90
22771;DHT22;11552;50.786;4.332;2022-08-02T10:38:39;34.80;55.10
22771;DHT22;11552;50.786;4.332;2022-08-02T10:41:05;34.40;55.80
22771;DHT22;11552;50.786;4.332;2022-08-02T10:49:14;32.80;57.80
22771;DHT22;11552;50.786;4.332;2022-08-02T10:54:34;32.00;59.90
22771;DHT22;11552;50.786;4.332;2022-08-02T10:57:01;31.20;62.20
22771;DHT22;11552;50.786;4.332;2022-08-02T10:59:29;30.70;63.50
22771;DHT22;11552;50.786;4.332;2022-08-02T11:01:57;30.50;64.40
22771;DHT22;11552;50.786;4.332;2022-08-02T11:07:16;30.00;64.30
22771;DHT22;11552;50.786;4.332;2022-08-02T11:09:49;29.80;66.00
22771;DHT22;11552;50.786;4.332;2022-08-02T11:12:19;29.70;65.70
22771;DHT22;11552;50.786;4.332;2022-08-02T11:14:59;29.40;67.10
22771;DHT22;11552;50.786;4.332;2022-08-02T11:17:26;29.30;67.50
22771;DHT22;11552;50.786;4.332;2022-08-02T11:22:42;29.10;69.40
22771;DHT22;11552;50.786;4.332;2022-08-02T11:28:09;28.90;69.40
22771;DHT22;11552;50.786;4.332;2022-08-02T11:30:35;29.00;67.60
22771;DHT22;11552;50.786;4.332;2022-08-02T11:33:02;29.00;67.80
22771;DHT22;11552;50.786;4.332;2022-08-02T11:38:14;29.20;66.80
22771;DHT22;11552;50.786;4.332;2022-08-02T11:40:40;29.10;68.00
22771;DHT22;11552;50.786;4.332;2022-08-02T11:43:19;29.10;68.90
22771;DHT22;11552;50.786;4.332;2022-08-02T11:45:46;29.30;68.50
22771;DHT22;11552;50.786;4.332;2022-08-02T11:48:12;29.30;68.10
22771;DHT22;11552;50.786;4.332;2022-08-02T11:50:38;29.20;66.40
22771;DHT22;11552;50.786;4.332;2022-08-02T11:53:15;29.10;68.40
22771;DHT22;11552;50.786;4.332;2022-08-02T11:55:41;29.00;67.10
22771;DHT22;11552;50.786;4.332;2022-08-02T11:58:06;28.90;66.50
22771;DHT22;11552;50.786;4.332;2022-08-02T12:00:34;28.90;68.20
22771;DHT22;11552;50.786;4.332;2022-08-02T12:03:00;29.00;70.30
22771;DHT22;11552;50.786;4.332;2022-08-02T12:05:26;29.00;71.80
22771;DHT22;11552;50.786;4.332;2022-08-02T12:07:52;29.10;70.80
22771;DHT22;11552;50.786;4.332;2022-08-02T12:10:22;29.40;70.80
22771;DHT22;11552;50.786;4.332;2022-08-02T12:12:57;29.50;71.80
22771;DHT22;11552;50.786;4.332;2022-08-02T12:15:44;29.60;68.60
22771;DHT22;11552;50.786;4.332;2022-08-02T12:18:14;29.60;67.90
22771;DHT22;11552;50.786;4.332;2022-08-02T12:20:59;29.50;69.40
22771;DHT22;11552;50.786;4.332;2022-08-02T12:23:26;29.40;70.90
22771;DHT22;11552;50.786;4.332;2022-08-02T12:26:04;29.40;70.60
22771;DHT22;11552;50.786;4.332;2022-08-02T12:28:35;29.70;69.60
22771;DHT22;11552;50.786;4.332;2022-08-02T12:31:04;29.70;68.10
22771;DHT22;11552;50.786;4.332;2022-08-02T12:33:56;29.60;68.70
22771;DHT22;11552;50.786;4.332;2022-08-02T12:36:23;29.70;68.80
22771;DHT22;11552;50.786;4.332;2022-08-02T12:38:53;30.00;68.60
22771;DHT22;11552;50.786;4.332;2022-08-02T12:41:19;30.00;68.40
22771;DHT22;11552;50.786;4.332;2022-08-02T12:43:45;29.90;68.30
22771;DHT22;11552;50.786;4.332;2022-08-02T12:46:16;29.80;67.80
22771;DHT22;11552;50.786;4.332;2022-08-02T12:48:42;29.90;67.20
22771;DHT22;11552;50.786;4.332;2022-08-02T12:53:54;30.00;67.90
22771;DHT22;11552;50.786;4.332;2022-08-02T12:56:30;30.00;67.90
22771;DHT22;11552;50.786;4.332;2022-08-02T12:58:55;29.70;69.10
22771;DHT22;11552;50.786;4.332;2022-08-02T13:01:24;29.30;70.10
22771;DHT22;11552;50.786;4.332;2022-08-02T13:03:50;29.40;70.40
22771;DHT22;11552;50.786;4.332;2022-08-02T13:06:17;29.50;71.20
22771;DHT22;11552;50.786;4.332;2022-08-02T13:08:43;29.60;71.70
22771;DHT22;11552;50.786;4.332;2022-08-02T13:11:09;29.80;70.80
22771;DHT22;11552;50.786;4.332;2022-08-02T13:13:34;29.80;71.10
22771;DHT22;11552;50.786;4.332;2022-08-02T13:16:01;29.80;72.10
22771;DHT22;11552;50.786;4.332;2022-08-02T13:18:27;29.60;71.10
22771;DHT22;11552;50.786;4.332;2022-08-02T13:20:52;29.60;72.20
22771;DHT22;11552;50.786;4.332;2022-08-02T13:23:18;29.60;72.30
22771;DHT22;11552;50.786;4.332;2022-08-02T13:25:44;29.80;72.40
22771;DHT22;11552;50.786;4.332;2022-08-02T13:28:10;29.70;73.20
22771;DHT22;11552;50.786;4.332;2022-08-02T13:30:36;29.80;72.00
22771;DHT22;11552;50.786;4.332;2022-08-02T13:33:02;29.90;72.40
22771;DHT22;11552;50.786;4.332;2022-08-02T13:35:28;30.10;72.00
22771;DHT22;11552;50.786;4.332;2022-08-02T13:37:54;30.30;71.20
22771;DHT22;11552;50.786;4.332;2022-08-02T13:40:19;30.50;70.80
22771;DHT22;11552;50.786;4.332;2022-08-02T13:42:46;30.60;70.50
22771;DHT22;11552;50.786;4.332;2022-08-02T13:45:11;30.70;70.20
22771;DHT22;11552;50.786;4.332;2022-08-02T13:47:38;30.60;71.00
22771;DHT22;11552;50.786;4.332;2022-08-02T13:50:05;30.40;72.00
22771;DHT22;11552;50.786;4.332;2022-08-02T13:52:31;30.50;71.10
22771;DHT22;11552;50.786;4.332;2022-08-02T13:54:57;30.60;71.40
22771;DHT22;11552;50.786;4.332;2022-08-02T13:57:23;30.40;71.30
22771;DHT22;11552;50.786;4.332;2022-08-02T13:59:48;30.50;72.00
22771;DHT22;11552;50.786;4.332;2022-08-02T14:02:14;30.60;71.60
22771;DHT22;11552;50.786;4.332;2022-08-02T14:04:40;30.50;71.10
22771;DHT22;11552;50.786;4.332;2022-08-02T14:07:05;30.80;71.50
22771;DHT22;11552;50.786;4.332;2022-08-02T14:09:31;30.80;70.60
22771;DHT22;11552;50.786;4.332;2022-08-02T14:11:58;30.80;71.20
22771;DHT22;11552;50.786;4.332;2022-08-02T14:14:24;30.70;71.90
22771;DHT22;11552;50.786;4.332;2022-08-02T14:16:51;31.00;71.50
22771;DHT22;11552;50.786;4.332;2022-08-02T14:19:16;31.10;71.40
22771;DHT22;11552;50.786;4.332;2022-08-02T14:21:43;31.30;71.00
22771;DHT22;11552;50.786;4.332;2022-08-02T14:24:08;31.30;70.50
22771;DHT22;11552;50.786;4.332;2022-08-02T14:26:34;31.30;71.00
22771;DHT22;11552;50.786;4.332;2022-08-02T14:29:00;31.00;71.50
22771;DHT22;11552;50.786;4.332;2022-08-02T14:31:26;30.70;71.60
22771;DHT22;11552;50.786;4.332;2022-08-02T14:33:52;30.80;72.00
22771;DHT22;11552;50.786;4.332;2022-08-02T14:36:17;30.50;74.00
22771;DHT22;11552;50.786;4.332;2022-08-02T14:38:43;30.50;73.50
22771;DHT22;11552;50.786;4.332;2022-08-02T14:41:09;30.70;72.70
22771;DHT22;11552;50.786;4.332;2022-08-02T14:43:34;30.60;73.00
22771;DHT22;11552;50.786;4.332;2022-08-02T14:46:19;30.20;74.40
22771;DHT22;11552;50.786;4.332;2022-08-02T14:48:44;30.10;74.50
22771;DHT22;11552;50.786;4.332;2022-08-02T14:51:10;30.40;73.60
22771;DHT22;11552;50.786;4.332;2022-08-02T14:53:38;30.60;72.80
22771;DHT22;11552;50.786;4.332;2022-08-02T14:56:04;30.60;73.20
22771;DHT22;11552;50.786;4.332;2022-08-02T14:58:30;30.70;73.60
22771;DHT22;11552;50.786;4.332;2022-08-02T15:00:56;30.70;73.80
22771;DHT22;11552;50.786;4.332;2022-08-02T15:03:21;30.60;73.50
22771;DHT22;11552;50.786;4.332;2022-08-02T15:05:47;30.40;74.50
22771;DHT22;11552;50.786;4.332;2022-08-02T15:08:13;30.30;74.90
22771;DHT22;11552;50.786;4.332;2022-08-02T15:10:38;30.40;74.90
22771;DHT22;11552;50.786;4.332;2022-08-02T15:13:04;30.30;75.00
22771;DHT22;11552;50.786;4.332;2022-08-02T15:15:30;30.70;74.80
22771;DHT22;11552;50.786;4.332;2022-08-02T15:17:56;30.80;73.60
22771;DHT22;11552;50.786;4.332;2022-08-02T15:20:22;30.90;73.70
22771;DHT22;11552;50.786;4.332;2022-08-02T15:22:47;30.60;74.10
22771;DHT22;11552;50.786;4.332;2022-08-02T15:25:13;30.10;76.20
22771;DHT22;11552;50.786;4.332;2022-08-02T15:27:40;30.20;75.80
22771;DHT22;11552;50.786;4.332;2022-08-02T15:30:06;30.70;74.60
22771;DHT22;11552;50.786;4.332;2022-08-02T15:32:33;31.00;73.20
22771;DHT22;11552;50.786;4.332;2022-08-02T15:34:58;31.00;72.80
22771;DHT22;11552;50.786;4.332;2022-08-02T15:37:24;31.00;73.60
22771;DHT22;11552;50.786;4.332;2022-08-02T15:39:50;31.00;74.10
22771;DHT22;11552;50.786;4.332;2022-08-02T15:42:16;30.70;74.70
22771;DHT22;11552;50.786;4.332;2022-08-02T15:44:43;31.00;73.80
22771;DHT22;11552;50.786;4.332;2022-08-02T15:47:10;31.10;73.80
22771;DHT22;11552;50.786;4.332;2022-08-02T15:49:36;31.30;72.90
22771;DHT22;11552;50.786;4.332;2022-08-02T15:52:02;31.30;72.90
22771;DHT22;11552;50.786;4.332;2022-08-02T15:54:27;31.30;73.40
22771;DHT22;11552;50.786;4.332;2022-08-02T15:56:53;31.00;74.00
22771;DHT22;11552;50.786;4.332;2022-08-02T15:59:18;30.90;74.20
22771;DHT22;11552;50.786;4.332;2022-08-02T16:01:44;30.80;74.20
22771;DHT22;11552;50.786;4.332;2022-08-02T16:04:13;30.90;73.60
22771;DHT22;11552;50.786;4.332;2022-08-02T16:06:39;31.00;74.20
22771;DHT22;11552;50.786;4.332;2022-08-02T16:09:04;31.00;74.00
22771;DHT22;11552;50.786;4.332;2022-08-02T16:11:30;30.70;74.00
22771;DHT22;11552;50.786;4.332;2022-08-02T16:13:55;30.70;74.40
22771;DHT22;11552;50.786;4.332;2022-08-02T16:16:29;30.70;74.90
22771;DHT22;11552;50.786;4.332;2022-08-02T16:18:55;30.50;75.70
22771;DHT22;11552;50.786;4.332;2022-08-02T16:21:21;30.20;77.40
22771;DHT22;11552;50.786;4.332;2022-08-02T16:23:47;30.40;76.40